Terminal Aerodrome Forecast
Issued by NWS Spokane, WA

Home | Current Version | Previous Version | Text Only | Print | Product List | Glossary On
Versions: 1 2 3 4 5 6 7 8 9 10 11 12
000
FTUS46 KOTX 241135
TAFLWS
TAF
KLWS 241135Z 2412/2512 10010KT P6SM -RA OVC060
     FM241500 23010KT P6SM -RA BKN030 OVC060
     FM241700 30010G19KT P6SM VCSH SCT040 BKN060
     FM241900 29013G22KT P6SM -SHRA VCTS SCT040CB BKN070
     FM250100 27008KT P6SM VCSH BKN080=

USA.gov is the U.S. government's official web portal to all federal, state and local government web resources and services.